sensor_id;sensor_type;location;lat;lon;timestamp;temperature;humidity
9965;DHT22;5023;53.554;9.964;2022-11-21T00:03:56;1.10;99.90
9965;DHT22;5023;53.554;9.964;2022-11-21T00:09:10;1.10;99.90
9965;DHT22;5023;53.554;9.964;2022-11-21T00:14:24;1.10;99.90
9965;DHT22;5023;53.554;9.964;2022-11-21T00:19:42;1.10;99.90
9965;DHT22;5023;53.554;9.964;2022-11-21T00:24:49;1.20;99.90
9965;DHT22;5023;53.554;9.964;2022-11-21T00:30:07;1.20;99.90
9965;DHT22;5023;53.554;9.964;2022-11-21T00:35:15;1.20;99.90
9965;DHT22;5023;53.554;9.964;2022-11-21T00:40:18;1.20;99.90
9965;DHT22;5023;53.554;9.964;2022-11-21T00:45:36;1.10;99.90
9965;DHT22;5023;53.554;9.964;2022-11-21T00:50:39;1.10;99.90
9965;DHT22;5023;53.554;9.964;2022-11-21T00:55:41;1.00;99.90
9965;DHT22;5023;53.554;9.964;2022-11-21T01:00:50;1.00;99.90
9965;DHT22;5023;53.554;9.964;2022-11-21T01:06:00;1.10;99.90
9965;DHT22;5023;53.554;9.964;2022-11-21T01:11:06;1.20;99.90
9965;DHT22;5023;53.554;9.964;2022-11-21T01:16:24;1.20;99.90
9965;DHT22;5023;53.554;9.964;2022-11-21T01:21:38;1.20;99.90
9965;DHT22;5023;53.554;9.964;2022-11-21T01:26:46;1.10;99.90
9965;DHT22;5023;53.554;9.964;2022-11-21T01:32:00;1.00;99.90
9965;DHT22;5023;53.554;9.964;2022-11-21T01:37:03;0.90;99.90
9965;DHT22;5023;53.554;9.964;2022-11-21T01:42:09;1.00;99.90
9965;DHT22;5023;53.554;9.964;2022-11-21T01:47:23;1.00;99.90
9965;DHT22;5023;53.554;9.964;2022-11-21T01:52:28;0.90;99.90
9965;DHT22;5023;53.554;9.964;2022-11-21T01:57:43;1.10;99.90
9965;DHT22;5023;53.554;9.964;2022-11-21T02:03:10;1.00;99.90
9965;DHT22;5023;53.554;9.964;2022-11-21T02:08:18;1.00;99.90
9965;DHT22;5023;53.554;9.964;2022-11-21T02:13:24;1.00;99.90
9965;DHT22;5023;53.554;9.964;2022-11-21T02:18:29;1.00;99.90
9965;DHT22;5023;53.554;9.964;2022-11-21T02:23:46;1.00;99.90
9965;DHT22;5023;53.554;9.964;2022-11-21T02:28:59;0.90;99.90
9965;DHT22;5023;53.554;9.964;2022-11-21T02:34:07;0.80;99.90
9965;DHT22;5023;53.554;9.964;2022-11-21T02:39:14;0.70;99.90
9965;DHT22;5023;53.554;9.964;2022-11-21T02:44:28;0.70;99.90
9965;DHT22;5023;53.554;9.964;2022-11-21T02:49:41;0.70;99.90
9965;DHT22;5023;53.554;9.964;2022-11-21T02:54:47;0.70;99.90
9965;DHT22;5023;53.554;9.964;2022-11-21T02:59:53;0.70;99.90
9965;DHT22;5023;53.554;9.964;2022-11-21T03:05:00;0.70;99.90
9965;DHT22;5023;53.554;9.964;2022-11-21T03:10:06;0.60;99.90
9965;DHT22;5023;53.554;9.964;2022-11-21T03:15:17;0.60;99.90
9965;DHT22;5023;53.554;9.964;2022-11-21T03:20:33;0.60;99.90
9965;DHT22;5023;53.554;9.964;2022-11-21T03:25:38;0.60;99.90
9965;DHT22;5023;53.554;9.964;2022-11-21T03:30:43;0.60;99.90
9965;DHT22;5023;53.554;9.964;2022-11-21T03:36:15;0.60;99.90
9965;DHT22;5023;53.554;9.964;2022-11-21T03:41:29;0.50;99.90
9965;DHT22;5023;53.554;9.964;2022-11-21T03:46:40;0.40;99.90
9965;DHT22;5023;53.554;9.964;2022-11-21T03:51:50;0.30;99.90
9965;DHT22;5023;53.554;9.964;2022-11-21T03:56:58;0.30;99.90
9965;DHT22;5023;53.554;9.964;2022-11-21T04:02:06;0.20;99.90
9965;DHT22;5023;53.554;9.964;2022-11-21T04:07:12;0.20;99.90
9965;DHT22;5023;53.554;9.964;2022-11-21T04:12:50;0.10;99.90
9965;DHT22;5023;53.554;9.964;2022-11-21T04:18:08;0.00;99.90
9965;DHT22;5023;53.554;9.964;2022-11-21T04:23:37;0.00;99.90
9965;DHT22;5023;53.554;9.964;2022-11-21T04:29:01;0.00;99.90
9965;DHT22;5023;53.554;9.964;2022-11-21T04:34:21;0.00;99.90
9965;DHT22;5023;53.554;9.964;2022-11-21T04:39:38;-0.10;99.90
9965;DHT22;5023;53.554;9.964;2022-11-21T04:45:05;-0.10;99.90
9965;DHT22;5023;53.554;9.964;2022-11-21T04:50:27;-0.10;99.90
9965;DHT22;5023;53.554;9.964;2022-11-21T04:55:42;-0.20;99.90
9965;DHT22;5023;53.554;9.964;2022-11-21T05:00:50;-0.10;99.90
9965;DHT22;5023;53.554;9.964;2022-11-21T05:06:04;-0.10;99.90
9965;DHT22;5023;53.554;9.964;2022-11-21T05:11:08;-0.10;99.90
9965;DHT22;5023;53.554;9.964;2022-11-21T05:16:45;-0.10;99.90
9965;DHT22;5023;53.554;9.964;2022-11-21T05:21:56;-0.20;99.90
9965;DHT22;5023;53.554;9.964;2022-11-21T05:27:44;-0.10;99.90
9965;DHT22;5023;53.554;9.964;2022-11-21T05:32:54;-0.20;99.90
9965;DHT22;5023;53.554;9.964;2022-11-21T05:38:03;-0.20;99.90
9965;DHT22;5023;53.554;9.964;2022-11-21T05:43:10;-0.20;99.90
9965;DHT22;5023;53.554;9.964;2022-11-21T05:48:39;-0.20;99.90
9965;DHT22;5023;53.554;9.964;2022-11-21T05:53:44;-0.20;99.90
9965;DHT22;5023;53.554;9.964;2022-11-21T05:58:50;-0.40;99.90
9965;DHT22;5023;53.554;9.964;2022-11-21T06:03:57;-0.40;99.90
9965;DHT22;5023;53.554;9.964;2022-11-21T06:09:06;-0.60;99.90
9965;DHT22;5023;53.554;9.964;2022-11-21T06:14:15;-0.50;99.90
9965;DHT22;5023;53.554;9.964;2022-11-21T06:19:21;-0.40;99.90
9965;DHT22;5023;53.554;9.964;2022-11-21T06:24:34;-0.50;99.90
9965;DHT22;5023;53.554;9.964;2022-11-21T06:29:42;-0.50;99.90
9965;DHT22;5023;53.554;9.964;2022-11-21T06:34:46;-0.50;99.90
9965;DHT22;5023;53.554;9.964;2022-11-21T06:39:55;-0.40;99.90
9965;DHT22;5023;53.554;9.964;2022-11-21T06:45:01;-0.40;99.90
9965;DHT22;5023;53.554;9.964;2022-11-21T06:50:09;-0.40;99.90
9965;DHT22;5023;53.554;9.964;2022-11-21T06:55:15;-0.50;99.90
9965;DHT22;5023;53.554;9.964;2022-11-21T07:00:18;-0.40;99.90
9965;DHT22;5023;53.554;9.964;2022-11-21T07:05:21;-0.20;99.90
9965;DHT22;5023;53.554;9.964;2022-11-21T07:10:49;-0.40;99.90
9965;DHT22;5023;53.554;9.964;2022-11-21T07:16:16;-0.40;99.90
9965;DHT22;5023;53.554;9.964;2022-11-21T07:21:24;-0.40;99.90
9965;DHT22;5023;53.554;9.964;2022-11-21T07:26:31;-0.30;99.90
9965;DHT22;5023;53.554;9.964;2022-11-21T07:32:00;-0.30;99.90
9965;DHT22;5023;53.554;9.964;2022-11-21T07:37:03;-0.10;99.90
9965;DHT22;5023;53.554;9.964;2022-11-21T07:42:11;-0.10;99.90
9965;DHT22;5023;53.554;9.964;2022-11-21T07:47:30;0.00;99.90
9965;DHT22;5023;53.554;9.964;2022-11-21T07:52:37;-0.10;99.90
9965;DHT22;5023;53.554;9.964;2022-11-21T07:57:41;0.00;99.90
9965;DHT22;5023;53.554;9.964;2022-11-21T08:02:48;0.00;99.90
9965;DHT22;5023;53.554;9.964;2022-11-21T08:07:52;0.00;99.90
9965;DHT22;5023;53.554;9.964;2022-11-21T08:13:00;-0.10;99.90
9965;DHT22;5023;53.554;9.964;2022-11-21T08:18:07;-0.10;99.90
9965;DHT22;5023;53.554;9.964;2022-11-21T08:23:10;-0.10;99.90
9965;DHT22;5023;53.554;9.964;2022-11-21T08:28:13;-0.10;99.90
9965;DHT22;5023;53.554;9.964;2022-11-21T08:33:16;0.00;99.90
9965;DHT22;5023;53.554;9.964;2022-11-21T08:38:21;0.10;99.90
9965;DHT22;5023;53.554;9.964;2022-11-21T08:43:26;0.10;99.90
9965;DHT22;5023;53.554;9.964;2022-11-21T08:48:29;0.20;99.90
9965;DHT22;5023;53.554;9.964;2022-11-21T08:53:38;0.20;99.90
9965;DHT22;5023;53.554;9.964;2022-11-21T08:58:57;0.30;99.90
9965;DHT22;5023;53.554;9.964;2022-11-21T09:04:23;0.40;99.90
9965;DHT22;5023;53.554;9.964;2022-11-21T09:09:39;0.90;99.90
9965;DHT22;5023;53.554;9.964;2022-11-21T09:20:29;1.60;99.90
9965;DHT22;5023;53.554;9.964;2022-11-21T09:25:40;1.50;99.90
9965;DHT22;5023;53.554;9.964;2022-11-21T09:31:05;1.60;99.90
9965;DHT22;5023;53.554;9.964;2022-11-21T09:36:31;1.40;99.90
9965;DHT22;5023;53.554;9.964;2022-11-21T09:41:45;1.50;99.90
9965;DHT22;5023;53.554;9.964;2022-11-21T09:47:16;1.60;99.90
9965;DHT22;5023;53.554;9.964;2022-11-21T09:52:34;2.00;99.90
9965;DHT22;5023;53.554;9.964;2022-11-21T09:57:40;2.20;99.90
9965;DHT22;5023;53.554;9.964;2022-11-21T10:02:46;2.00;99.90
9965;DHT22;5023;53.554;9.964;2022-11-21T10:07:59;2.00;99.90
9965;DHT22;5023;53.554;9.964;2022-11-21T10:13:26;1.90;99.90
9965;DHT22;5023;53.554;9.964;2022-11-21T10:24:43;1.40;99.90
9965;DHT22;5023;53.554;9.964;2022-11-21T10:29:58;1.50;99.90
9965;DHT22;5023;53.554;9.964;2022-11-21T10:35:15;1.20;99.90
9965;DHT22;5023;53.554;9.964;2022-11-21T10:40:34;1.30;99.90
9965;DHT22;5023;53.554;9.964;2022-11-21T10:45:41;1.60;99.90
9965;DHT22;5023;53.554;9.964;2022-11-21T10:51:18;1.60;99.90
9965;DHT22;5023;53.554;9.964;2022-11-21T10:56:33;1.50;99.90
9965;DHT22;5023;53.554;9.964;2022-11-21T11:01:53;1.70;99.90
9965;DHT22;5023;53.554;9.964;2022-11-21T11:06:57;2.00;99.90
9965;DHT22;5023;53.554;9.964;2022-11-21T11:12:26;2.10;99.90
9965;DHT22;5023;53.554;9.964;2022-11-21T11:17:54;2.50;99.90
9965;DHT22;5023;53.554;9.964;2022-11-21T11:23:25;2.80;99.90
9965;DHT22;5023;53.554;9.964;2022-11-21T11:28:36;2.70;99.90
9965;DHT22;5023;53.554;9.964;2022-11-21T11:33:40;3.10;99.90
9965;DHT22;5023;53.554;9.964;2022-11-21T11:39:01;3.30;99.90
9965;DHT22;5023;53.554;9.964;2022-11-21T11:44:46;3.40;99.90
9965;DHT22;5023;53.554;9.964;2022-11-21T11:50:34;3.80;99.90
9965;DHT22;5023;53.554;9.964;2022-11-21T11:56:14;4.00;99.90
9965;DHT22;5023;53.554;9.964;2022-11-21T12:01:40;4.10;99.90
9965;DHT22;5023;53.554;9.964;2022-11-21T12:07:00;4.00;99.90
9965;DHT22;5023;53.554;9.964;2022-11-21T12:12:12;4.10;99.90
9965;DHT22;5023;53.554;9.964;2022-11-21T12:17:26;4.10;99.90
9965;DHT22;5023;53.554;9.964;2022-11-21T12:22:34;4.20;99.90
9965;DHT22;5023;53.554;9.964;2022-11-21T12:27:40;4.30;99.90
9965;DHT22;5023;53.554;9.964;2022-11-21T12:32:54;4.20;99.90
9965;DHT22;5023;53.554;9.964;2022-11-21T12:38:04;4.20;99.90
9965;DHT22;5023;53.554;9.964;2022-11-21T12:43:26;4.40;99.90
9965;DHT22;5023;53.554;9.964;2022-11-21T12:48:43;4.50;99.90
9965;DHT22;5023;53.554;9.964;2022-11-21T13:00:11;4.70;99.90
9965;DHT22;5023;53.554;9.964;2022-11-21T13:05:25;4.70;99.90
9965;DHT22;5023;53.554;9.964;2022-11-21T13:11:12;4.70;99.90
9965;DHT22;5023;53.554;9.964;2022-11-21T13:16:45;4.60;99.90
9965;DHT22;5023;53.554;9.964;2022-11-21T13:21:58;4.60;99.90
9965;DHT22;5023;53.554;9.964;2022-11-21T13:27:25;4.60;99.90
9965;DHT22;5023;53.554;9.964;2022-11-21T13:32:44;4.60;99.90
9965;DHT22;5023;53.554;9.964;2022-11-21T13:38:04;4.70;99.90
9965;DHT22;5023;53.554;9.964;2022-11-21T13:43:42;4.70;99.90
9965;DHT22;5023;53.554;9.964;2022-11-21T13:49:02;4.80;99.90
9965;DHT22;5023;53.554;9.964;2022-11-21T13:54:37;4.60;99.90
9965;DHT22;5023;53.554;9.964;2022-11-21T13:59:59;4.50;99.90
9965;DHT22;5023;53.554;9.964;2022-11-21T14:05:23;4.30;99.90
9965;DHT22;5023;53.554;9.964;2022-11-21T14:10:33;4.00;99.90
9965;DHT22;5023;53.554;9.964;2022-11-21T14:15:52;4.10;99.90
9965;DHT22;5023;53.554;9.964;2022-11-21T14:21:00;4.10;99.90
9965;DHT22;5023;53.554;9.964;2022-11-21T14:26:09;4.00;99.90
9965;DHT22;5023;53.554;9.964;2022-11-21T14:31:14;3.80;99.90
9965;DHT22;5023;53.554;9.964;2022-11-21T14:36:18;3.70;99.90
9965;DHT22;5023;53.554;9.964;2022-11-21T14:41:28;3.80;99.90
9965;DHT22;5023;53.554;9.964;2022-11-21T14:46:37;3.90;99.90
9965;DHT22;5023;53.554;9.964;2022-11-21T14:51:40;3.70;99.90
9965;DHT22;5023;53.554;9.964;2022-11-21T14:56:52;4.00;99.90
9965;DHT22;5023;53.554;9.964;2022-11-21T15:02:06;3.90;99.90
9965;DHT22;5023;53.554;9.964;2022-11-21T15:07:44;3.80;99.90
9965;DHT22;5023;53.554;9.964;2022-11-21T15:19:33;4.00;99.90
9965;DHT22;5023;53.554;9.964;2022-11-21T15:25:07;4.10;99.90
9965;DHT22;5023;53.554;9.964;2022-11-21T15:30:26;4.00;99.90
9965;DHT22;5023;53.554;9.964;2022-11-21T15:36:09;4.20;99.90
9965;DHT22;5023;53.554;9.964;2022-11-21T15:41:29;4.00;99.90
9965;DHT22;5023;53.554;9.964;2022-11-21T15:46:40;4.10;99.90
9965;DHT22;5023;53.554;9.964;2022-11-21T15:51:46;3.70;99.90
9965;DHT22;5023;53.554;9.964;2022-11-21T15:57:01;3.60;99.90
9965;DHT22;5023;53.554;9.964;2022-11-21T16:02:13;3.30;99.90
9965;DHT22;5023;53.554;9.964;2022-11-21T16:07:22;3.40;99.90
9965;DHT22;5023;53.554;9.964;2022-11-21T16:12:24;3.10;99.90
9965;DHT22;5023;53.554;9.964;2022-11-21T16:17:28;2.80;99.90
9965;DHT22;5023;53.554;9.964;2022-11-21T16:22:36;2.90;99.90
9965;DHT22;5023;53.554;9.964;2022-11-21T16:27:42;2.80;99.90
9965;DHT22;5023;53.554;9.964;2022-11-21T16:33:16;3.00;99.90
9965;DHT22;5023;53.554;9.964;2022-11-21T16:38:27;2.70;99.90
9965;DHT22;5023;53.554;9.964;2022-11-21T16:43:45;2.40;99.90
9965;DHT22;5023;53.554;9.964;2022-11-21T16:49:03;2.20;99.90
9965;DHT22;5023;53.554;9.964;2022-11-21T16:54:22;1.90;99.90
9965;DHT22;5023;53.554;9.964;2022-11-21T16:59:41;1.90;99.90
9965;DHT22;5023;53.554;9.964;2022-11-21T17:04:58;2.00;99.90
9965;DHT22;5023;53.554;9.964;2022-11-21T17:10:32;2.10;99.90
9965;DHT22;5023;53.554;9.964;2022-11-21T17:16:17;1.90;99.90
9965;DHT22;5023;53.554;9.964;2022-11-21T17:27:22;1.60;99.90
9965;DHT22;5023;53.554;9.964;2022-11-21T17:33:08;1.50;99.90
9965;DHT22;5023;53.554;9.964;2022-11-21T17:38:15;1.40;99.90
9965;DHT22;5023;53.554;9.964;2022-11-21T17:43:29;1.30;99.90
9965;DHT22;5023;53.554;9.964;2022-11-21T17:49:23;1.30;99.90
9965;DHT22;5023;53.554;9.964;2022-11-21T17:54:41;1.10;99.90
9965;DHT22;5023;53.554;9.964;2022-11-21T17:59:56;0.90;99.90
9965;DHT22;5023;53.554;9.964;2022-11-21T18:05:13;0.70;99.90
9965;DHT22;5023;53.554;9.964;2022-11-21T18:10:20;0.80;99.90
9965;DHT22;5023;53.554;9.964;2022-11-21T18:15:26;0.60;99.90
9965;DHT22;5023;53.554;9.964;2022-11-21T18:20:30;0.50;99.90
9965;DHT22;5023;53.554;9.964;2022-11-21T18:25:40;0.40;99.90
9965;DHT22;5023;53.554;9.964;2022-11-21T18:31:16;0.40;99.90
9965;DHT22;5023;53.554;9.964;2022-11-21T18:36:53;0.40;99.90
9965;DHT22;5023;53.554;9.964;2022-11-21T18:41:56;0.30;99.90
9965;DHT22;5023;53.554;9.964;2022-11-21T18:47:00;0.10;99.90
9965;DHT22;5023;53.554;9.964;2022-11-21T18:52:08;0.00;99.90
9965;DHT22;5023;53.554;9.964;2022-11-21T18:57:20;-0.10;99.90
9965;DHT22;5023;53.554;9.964;2022-11-21T19:02:34;-0.20;99.90
9965;DHT22;5023;53.554;9.964;2022-11-21T19:08:14;-0.10;99.90
9965;DHT22;5023;53.554;9.964;2022-11-21T19:13:46;-0.10;99.90
9965;DHT22;5023;53.554;9.964;2022-11-21T19:18:58;-0.10;99.90
9965;DHT22;5023;53.554;9.964;2022-11-21T19:24:19;1.20;99.90
9965;DHT22;5023;53.554;9.964;2022-11-21T19:29:25;0.00;99.90
9965;DHT22;5023;53.554;9.964;2022-11-21T19:34:39;0.10;99.90
9965;DHT22;5023;53.554;9.964;2022-11-21T19:40:04;-0.10;99.90
9965;DHT22;5023;53.554;9.964;2022-11-21T19:45:37;-0.10;99.90
9965;DHT22;5023;53.554;9.964;2022-11-21T19:50:53;-0.20;99.90
9965;DHT22;5023;53.554;9.964;2022-11-21T20:01:25;-0.30;99.90
9965;DHT22;5023;53.554;9.964;2022-11-21T20:06:36;-0.40;99.90
9965;DHT22;5023;53.554;9.964;2022-11-21T20:11:40;-0.30;99.90
9965;DHT22;5023;53.554;9.964;2022-11-21T20:16:50;-0.20;99.90
9965;DHT22;5023;53.554;9.964;2022-11-21T20:22:13;-0.10;99.90
9965;DHT22;5023;53.554;9.964;2022-11-21T20:28:03;-0.10;99.90
9965;DHT22;5023;53.554;9.964;2022-11-21T20:33:19;-0.10;99.90
9965;DHT22;5023;53.554;9.964;2022-11-21T20:38:52;-0.10;99.90
9965;DHT22;5023;53.554;9.964;2022-11-21T20:44:18;-0.10;99.90
9965;DHT22;5023;53.554;9.964;2022-11-21T20:49:52;-0.10;99.90
9965;DHT22;5023;53.554;9.964;2022-11-21T20:54:59;0.00;99.90
9965;DHT22;5023;53.554;9.964;2022-11-21T21:00:09;-0.10;99.90
9965;DHT22;5023;53.554;9.964;2022-11-21T21:05:13;-0.20;99.90
9965;DHT22;5023;53.554;9.964;2022-11-21T21:10:18;-0.20;99.90
9965;DHT22;5023;53.554;9.964;2022-11-21T21:15:23;-0.20;99.90
9965;DHT22;5023;53.554;9.964;2022-11-21T21:20:28;-0.20;99.90
9965;DHT22;5023;53.554;9.964;2022-11-21T21:25:36;-0.20;99.90
9965;DHT22;5023;53.554;9.964;2022-11-21T21:31:05;-0.30;99.90
9965;DHT22;5023;53.554;9.964;2022-11-21T21:36:11;-0.30;99.90
9965;DHT22;5023;53.554;9.964;2022-11-21T21:41:18;-0.30;99.90
9965;DHT22;5023;53.554;9.964;2022-11-21T21:46:22;-0.30;99.90
9965;DHT22;5023;53.554;9.964;2022-11-21T21:51:28;-0.40;99.90
9965;DHT22;5023;53.554;9.964;2022-11-21T21:56:34;-0.50;99.90
9965;DHT22;5023;53.554;9.964;2022-11-21T22:01:37;-0.60;99.90
9965;DHT22;5023;53.554;9.964;2022-11-21T22:06:40;-0.60;99.90
9965;DHT22;5023;53.554;9.964;2022-11-21T22:11:43;-0.60;99.90
9965;DHT22;5023;53.554;9.964;2022-11-21T22:16:46;-0.50;99.90
9965;DHT22;5023;53.554;9.964;2022-11-21T22:21:55;-0.40;99.90
9965;DHT22;5023;53.554;9.964;2022-11-21T22:27:03;-0.40;99.90
9965;DHT22;5023;53.554;9.964;2022-11-21T22:32:06;-0.40;99.90
9965;DHT22;5023;53.554;9.964;2022-11-21T22:37:17;-0.40;99.90
9965;DHT22;5023;53.554;9.964;2022-11-21T22:47:39;-0.50;99.90
9965;DHT22;5023;53.554;9.964;2022-11-21T22:52:42;-0.60;99.90
9965;DHT22;5023;53.554;9.964;2022-11-21T22:57:49;-0.50;99.90
9965;DHT22;5023;53.554;9.964;2022-11-21T23:03:04;-0.30;99.90
9965;DHT22;5023;53.554;9.964;2022-11-21T23:08:24;-0.40;99.90
9965;DHT22;5023;53.554;9.964;2022-11-21T23:13:30;-0.50;99.90
9965;DHT22;5023;53.554;9.964;2022-11-21T23:18:38;-0.40;99.90
9965;DHT22;5023;53.554;9.964;2022-11-21T23:23:44;-0.40;99.90
9965;DHT22;5023;53.554;9.964;2022-11-21T23:28:48;-0.30;99.90
9965;DHT22;5023;53.554;9.964;2022-11-21T23:33:51;-0.50;99.90
9965;DHT22;5023;53.554;9.964;2022-11-21T23:39:04;-0.50;99.90
9965;DHT22;5023;53.554;9.964;2022-11-21T23:44:32;-0.40;99.90
9965;DHT22;5023;53.554;9.964;2022-11-21T23:49:41;-0.40;99.90
9965;DHT22;5023;53.554;9.964;2022-11-21T23:55:00;-0.50;99.90
